Time;durP1;ratioP1;P1;durP2;ratioP2;P2;SDS_P1;SDS_P2;PMS_P1;PMS_P2;Temp;Humidity;BMP_temperature;BMP_pressure;BME280_temperature;BME280_humidity;BME280_pressure;Samples;Min_cycle;Max_cycle;Signal;HPM_P1;HPM_P2
2023/10/08 00:02:22;;;;;;;7.40;4.87;;;20.10;96.80;;;;;;4916526;29;20436;-70
2023/10/08 00:04:50;;;;;;;6.83;5.33;;;20.10;96.80;;;;;;4910898;29;20457;-70
2023/10/08 00:07:21;;;;;;;7.57;5.10;;;20.10;96.80;;;;;;4926389;29;20795;-71
2023/10/08 00:09:53;;;;;;;5.60;4.67;;;20.10;96.70;;;;;;4943672;29;20545;-71
2023/10/08 00:12:20;;;;;;;7.40;4.93;;;20.10;96.70;;;;;;4926434;29;20451;-71
2023/10/08 00:14:53;;;;;;;5.60;5.00;;;20.10;96.70;;;;;;4959075;23;20951;-67
2023/10/08 00:17:20;;;;;;;5.73;5.03;;;20.10;96.60;;;;;;4911704;29;20802;-68
2023/10/08 00:19:52;;;;;;;6.53;4.53;;;20.10;96.70;;;;;;4895806;29;20433;-68
2023/10/08 00:22:19;;;;;;;6.80;5.17;;;20.10;96.70;;;;;;4911604;29;20914;-67
2023/10/08 00:24:46;;;;;;;6.40;5.33;;;20.10;96.70;;;;;;4927572;28;20435;-67
2023/10/08 00:27:14;;;;;;;7.87;4.93;;;20.30;96.80;;;;;;4945488;29;20499;-67
2023/10/08 00:29:43;;;;;;;5.03;4.53;;;20.10;96.70;;;;;;4911589;29;20924;-68
2023/10/08 00:32:14;;;;;;;5.83;4.83;;;20.10;96.60;;;;;;4944705;29;20437;-68
2023/10/08 00:34:42;;;;;;;5.93;4.77;;;20.10;96.60;;;;;;4944405;28;20531;-69
2023/10/08 00:37:14;;;;;;;6.37;4.70;;;20.10;96.60;;;;;;4945007;29;20437;-68
2023/10/08 00:39:41;;;;;;;6.90;5.20;;;20.10;96.50;;;;;;4911695;29;20470;-68
2023/10/08 00:42:08;;;;;;;7.33;5.10;;;20.10;96.50;;;;;;4927736;29;20420;-69
2023/10/08 00:44:47;;;;;;;10.03;5.27;;;20.10;96.50;;;;;;4893437;29;20634;-67
2023/10/08 00:47:16;;;;;;;6.00;4.83;;;20.10;96.50;;;;;;4908982;29;20448;-69
2023/10/08 00:57:29;;;;;;;8.00;5.43;;;20.00;96.50;;;;;;4910390;29;20454;-68
2023/10/08 00:59:58;;;;;;;7.60;5.77;;;20.00;96.50;;;;;;4931422;29;20500;-68
2023/10/08 01:02:48;;;;;;;6.23;4.83;;;20.00;96.50;;;;;;4926021;29;20472;-68
2023/10/08 01:05:18;;;;;;;7.27;5.27;;;20.00;96.50;;;;;;4925931;29;20450;-68
2023/10/08 01:07:48;;;;;;;6.57;5.30;;;20.00;96.50;;;;;;4925911;29;20978;-68
2023/10/08 01:10:20;;;;;;;5.53;4.57;;;20.00;96.50;;;;;;4910283;29;20519;-68
2023/10/08 01:13:03;;;;;;;5.07;4.60;;;20.00;96.50;;;;;;4925928;29;20424;-68
2023/10/08 01:15:35;;;;;;;6.20;4.97;;;20.00;96.50;;;;;;4925321;29;20559;-68
2023/10/08 01:18:14;;;;;;;6.27;4.80;;;20.00;96.50;;;;;;4944179;29;20436;-68
2023/10/08 01:20:51;;;;;;;6.17;4.90;;;20.00;96.50;;;;;;4910199;29;20455;-68
2023/10/08 01:23:27;;;;;;;5.43;4.57;;;20.00;96.50;;;;;;4894509;29;20484;-68
2023/10/08 01:26:09;;;;;;;5.77;5.00;;;20.00;96.60;;;;;;4925201;29;20451;-68
2023/10/08 01:28:36;;;;;;;5.60;4.87;;;20.00;96.60;;;;;;4902356;29;20489;-68
2023/10/08 01:31:06;;;;;;;6.67;5.37;;;20.00;96.60;;;;;;4907138;29;20463;-68
2023/10/08 01:33:38;;;;;;;5.37;4.87;;;19.90;96.50;;;;;;4925827;29;20461;-68
2023/10/08 01:36:04;;;;;;;5.67;4.70;;;20.00;96.60;;;;;;4925803;29;20542;-68
2023/10/08 01:38:34;;;;;;;7.47;5.13;;;20.00;96.60;;;;;;4910003;29;20466;-68
2023/10/08 01:41:05;;;;;;;5.17;4.60;;;19.90;96.50;;;;;;4925580;29;20439;-68
2023/10/08 01:43:31;;;;;;;7.30;5.30;;;19.90;96.50;;;;;;4917311;29;20521;-68
2023/10/08 01:45:58;;;;;;;6.00;4.23;;;20.00;96.60;;;;;;4942336;28;20503;-68
2023/10/08 01:48:28;;;;;;;6.50;4.80;;;20.00;96.60;;;;;;4909569;29;20442;-68
2023/10/08 01:51:04;;;;;;;6.40;4.90;;;20.00;96.70;;;;;;4909967;29;20451;-68
2023/10/08 01:53:31;;;;;;;5.80;4.40;;;20.00;96.60;;;;;;4925039;29;20431;-68
2023/10/08 01:56:04;;;;;;;5.73;4.53;;;20.00;96.70;;;;;;4909891;29;20531;-68
2023/10/08 01:58:30;;;;;;;6.90;4.80;;;19.90;96.60;;;;;;4909563;29;20899;-68
2023/10/08 02:01:00;;;;;;;5.90;4.50;;;19.90;96.60;;;;;;4924949;29;20942;-68
2023/10/08 02:03:29;;;;;;;9.70;4.80;;;19.90;96.60;;;;;;4923496;29;20492;-68
2023/10/08 02:05:59;;;;;;;5.60;4.70;;;19.90;96.70;;;;;;4924817;29;20443;-68
2023/10/08 02:08:30;;;;;;;5.50;4.93;;;19.90;96.70;;;;;;4924922;29;20432;-68
2023/10/08 02:10:59;;;;;;;6.23;4.57;;;19.90;96.60;;;;;;4909556;29;20504;-68
2023/10/08 02:13:30;;;;;;;6.30;4.40;;;19.90;96.70;;;;;;4924865;29;20813;-68
2023/10/08 02:15:58;;;;;;;5.33;4.83;;;19.90;96.70;;;;;;4924579;29;20478;-68
2023/10/08 02:18:25;;;;;;;6.20;5.00;;;20.00;96.70;;;;;;4909299;29;21144;-68
2023/10/08 02:20:51;;;;;;;5.87;4.67;;;19.90;96.70;;;;;;4942425;29;20550;-68
2023/10/08 02:23:18;;;;;;;5.50;4.23;;;19.90;96.70;;;;;;4925042;29;21070;-68
2023/10/08 02:25:48;;;;;;;7.70;4.90;;;19.90;96.70;;;;;;4909877;29;20457;-68
2023/10/08 02:28:20;;;;;;;5.43;4.50;;;19.90;96.70;;;;;;4908940;29;20502;-68
2023/10/08 02:30:46;;;;;;;6.00;4.33;;;19.90;96.70;;;;;;4909019;29;20493;-68
2023/10/08 02:33:15;;;;;;;6.37;4.50;;;19.80;96.60;;;;;;4924569;29;20546;-68
2023/10/08 02:35:45;;;;;;;5.87;4.10;;;19.80;96.60;;;;;;4924983;29;20447;-68
2023/10/08 02:38:16;;;;;;;5.67;4.37;;;19.80;96.70;;;;;;4927055;29;20464;-68
2023/10/08 02:40:46;;;;;;;5.13;4.40;;;19.80;96.70;;;;;;4928663;29;20455;-68
2023/10/08 02:43:17;;;;;;;5.87;4.50;;;19.90;96.70;;;;;;4912868;29;20482;-68
2023/10/08 02:45:49;;;;;;;4.83;4.27;;;19.80;96.70;;;;;;4928724;29;20819;-68
2023/10/08 02:48:20;;;;;;;5.60;4.93;;;19.90;96.70;;;;;;4898200;29;20447;-68
2023/10/08 02:50:46;;;;;;;5.37;4.73;;;19.80;96.70;;;;;;4912450;29;20435;-68
2023/10/08 02:53:12;;;;;;;6.90;5.37;;;19.80;96.70;;;;;;4928098;29;21105;-68
2023/10/08 02:55:44;;;;;;;5.00;4.50;;;19.80;96.70;;;;;;4928464;29;20463;-68
2023/10/08 02:58:18;;;;;;;5.33;4.57;;;19.80;96.70;;;;;;4945406;29;20447;-68
2023/10/08 03:00:49;;;;;;;5.80;4.40;;;19.80;96.60;;;;;;4927926;29;20432;-68
2023/10/08 03:03:16;;;;;;;5.67;4.40;;;19.80;96.60;;;;;;4927709;29;20888;-68
2023/10/08 03:05:46;;;;;;;6.20;4.57;;;19.80;96.60;;;;;;4911957;29;20993;-68
2023/10/08 03:08:20;;;;;;;6.03;4.43;;;19.80;96.60;;;;;;4912082;29;20448;-68
2023/10/08 03:10:55;;;;;;;6.47;4.70;;;19.80;96.60;;;;;;4927465;29;21005;-68
2023/10/08 03:13:26;;;;;;;4.60;4.17;;;19.80;96.60;;;;;;4927500;29;20815;-68
2023/10/08 03:18:35;;;;;;;5.30;4.57;;;19.80;96.60;;;;;;4927748;29;20467;-68
2023/10/08 03:21:19;;;;;;;7.47;5.17;;;19.80;96.60;;;;;;4927984;29;20528;-68
2023/10/08 03:23:51;;;;;;;5.70;4.50;;;19.80;96.60;;;;;;4911545;29;20606;-68
2023/10/08 03:26:33;;;;;;;5.33;4.83;;;19.80;96.50;;;;;;4896035;29;20677;-68
2023/10/08 03:29:15;;;;;;;6.60;4.87;;;19.70;96.50;;;;;;4911951;29;20522;-68
2023/10/08 03:34:19;;;;;;;6.40;4.40;;;19.70;96.50;;;;;;4911785;29;20840;-68
2023/10/08 03:36:47;;;;;;;6.63;4.73;;;19.70;96.50;;;;;;4911395;29;20484;-68
2023/10/08 03:39:18;;;;;;;5.90;4.90;;;19.70;96.50;;;;;;4927373;29;20483;-68
2023/10/08 03:41:58;;;;;;;5.87;5.03;;;19.70;96.50;;;;;;4911606;29;20552;-68
2023/10/08 03:44:29;;;;;;;5.60;4.60;;;19.70;96.50;;;;;;4927504;29;20475;-68
2023/10/08 03:46:57;;;;;;;7.70;4.77;;;19.70;96.60;;;;;;4927398;29;20459;-68
2023/10/08 03:51:53;;;;;;;6.33;5.07;;;19.70;96.50;;;;;;4927440;29;20562;-68
2023/10/08 03:54:35;;;;;;;7.07;5.70;;;19.70;96.50;;;;;;4927550;29;20851;-68
2023/10/08 03:57:13;;;;;;;5.60;5.00;;;19.70;96.50;;;;;;4927070;29;20452;-68
2023/10/08 03:59:40;;;;;;;5.30;4.80;;;19.70;96.50;;;;;;4919944;29;20533;-68
2023/10/08 04:02:15;;;;;;;7.40;5.20;;;19.70;96.60;;;;;;4910915;29;20887;-68
2023/10/08 04:04:57;;;;;;;7.90;4.90;;;19.70;96.40;;;;;;4937174;28;20452;-68
2023/10/08 04:12:55;;;;;;;7.07;4.90;;;19.70;96.40;;;;;;4923143;29;20456;-68
2023/10/08 04:15:21;;;;;;;6.10;4.77;;;19.60;96.40;;;;;;4926479;29;20504;-68
2023/10/08 04:17:50;;;;;;;6.20;4.97;;;19.60;96.40;;;;;;4944402;29;20551;-68
2023/10/08 04:23:04;;;;;;;5.17;4.33;;;19.60;96.40;;;;;;4911625;29;20478;-68
2023/10/08 04:25:33;;;;;;;5.63;4.83;;;19.60;96.40;;;;;;4927714;29;20920;-68
2023/10/08 04:28:00;;;;;;;5.87;4.60;;;19.60;96.40;;;;;;4927220;29;20421;-68
2023/10/08 04:30:36;;;;;;;4.83;4.20;;;19.60;96.40;;;;;;4926783;29;20876;-70
2023/10/08 04:33:14;;;;;;;6.17;4.70;;;19.60;96.40;;;;;;4927088;29;20554;-68
2023/10/08 04:35:51;;;;;;;5.97;4.93;;;19.60;96.40;;;;;;4926483;29;20454;-68
2023/10/08 04:38:21;;;;;;;6.03;4.67;;;19.60;96.40;;;;;;4944076;29;20823;-68
2023/10/08 04:41:01;;;;;;;5.00;4.50;;;19.60;96.70;;;;;;4944278;29;20522;-68
2023/10/08 04:43:32;;;;;;;7.33;5.00;;;19.60;96.40;;;;;;4927046;29;20475;-70
2023/10/08 04:48:49;;;;;;;5.67;4.47;;;19.60;96.40;;;;;;4938312;29;20445;-68
2023/10/08 04:51:17;;;;;;;5.83;4.87;;;19.50;96.30;;;;;;4944631;29;20461;-68
2023/10/08 04:53:47;;;;;;;5.03;4.20;;;19.50;96.30;;;;;;4944425;29;20825;-68
2023/10/08 04:56:17;;;;;;;5.03;4.53;;;19.50;96.30;;;;;;4926774;29;20685;-68
2023/10/08 04:58:48;;;;;;;6.50;4.33;;;19.50;96.30;;;;;;4926663;29;20475;-69
2023/10/08 05:01:18;;;;;;;5.00;4.50;;;19.50;96.30;;;;;;4942937;28;20429;-69
2023/10/08 05:14:34;;;;;;;5.27;4.47;;;19.50;96.40;;;;;;4925536;29;20515;-68
2023/10/08 05:19:50;;;;;;;4.90;4.37;;;19.50;96.40;;;;;;4925883;29;20544;-68
2023/10/08 06:07:56;;;;;;;5.10;4.60;;;19.40;96.40;;;;;;4941334;29;20555;-70
2023/10/08 06:13:10;;;;;;;5.00;4.40;;;19.40;96.30;;;;;;4924000;29;20460;-70
2023/10/08 06:15:48;;;;;;;5.77;4.73;;;19.40;96.30;;;;;;4916330;29;21071;-68
2023/10/08 06:18:19;;;;;;;8.50;5.53;;;19.40;96.30;;;;;;4924060;29;20981;-68
2023/10/08 06:20:49;;;;;;;6.03;4.07;;;19.40;96.30;;;;;;4940777;29;20434;-68
2023/10/08 06:23:18;;;;;;;8.47;5.10;;;19.40;96.30;;;;;;4941150;29;20927;-68
2023/10/08 06:25:54;;;;;;;5.10;4.40;;;19.40;96.30;;;;;;4941448;28;21129;-68
2023/10/08 06:28:25;;;;;;;5.20;4.67;;;19.40;96.30;;;;;;4923811;29;20798;-68
2023/10/08 06:30:53;;;;;;;5.23;4.70;;;19.40;96.40;;;;;;4923651;29;21010;-68
2023/10/08 06:33:25;;;;;;;5.80;4.50;;;19.40;96.40;;;;;;4892250;29;20668;-68
2023/10/08 06:36:05;;;;;;;5.03;4.50;;;19.40;96.40;;;;;;4924274;29;20979;-68
2023/10/08 06:38:34;;;;;;;5.70;4.53;;;19.40;96.30;;;;;;4916302;29;20526;-68
2023/10/08 06:41:29;;;;;;;5.57;4.43;;;19.30;96.30;;;;;;4907793;29;20511;-67
2023/10/08 06:44:02;;;;;;;7.50;4.90;;;19.40;96.30;;;;;;4934767;29;20491;-68
2023/10/08 06:46:32;;;;;;;4.70;4.20;;;19.30;96.30;;;;;;4923792;29;20458;-67
2023/10/08 06:49:11;;;;;;;7.73;4.90;;;19.40;96.30;;;;;;4923894;29;20912;-68
2023/10/08 06:51:41;;;;;;;5.50;4.50;;;19.40;96.30;;;;;;4933422;29;20512;-68
2023/10/08 06:54:13;;;;;;;4.63;4.13;;;19.40;96.30;;;;;;4940796;29;20438;-68
2023/10/08 06:56:46;;;;;;;4.77;3.60;;;19.30;96.20;;;;;;4900558;29;20476;-68
2023/10/08 06:59:17;;;;;;;6.47;5.50;;;19.30;96.30;;;;;;4920947;29;20805;-68
2023/10/08 07:01:45;;;;;;;8.13;4.50;;;19.30;96.30;;;;;;4941175;29;20824;-68
2023/10/08 07:04:18;;;;;;;5.87;4.70;;;19.30;96.30;;;;;;4923995;29;21002;-68
2023/10/08 07:06:50;;;;;;;5.60;4.17;;;19.30;96.30;;;;;;4942002;29;20450;-68
2023/10/08 07:09:29;;;;;;;5.13;4.30;;;19.30;96.30;;;;;;4942262;29;20437;-67
2023/10/08 07:11:56;;;;;;;5.20;4.70;;;19.30;96.20;;;;;;4925532;29;20466;-68
2023/10/08 07:14:26;;;;;;;5.17;4.40;;;19.30;96.30;;;;;;4924639;29;20515;-68
2023/10/08 07:17:00;;;;;;;6.00;5.13;;;19.30;96.30;;;;;;4923970;29;20476;-68
2023/10/08 07:19:40;;;;;;;4.83;4.33;;;19.30;96.30;;;;;;4910063;29;20430;-68
2023/10/08 07:22:28;;;;;;;7.00;4.70;;;19.30;96.30;;;;;;4925828;29;20441;-68
2023/10/08 07:24:54;;;;;;;5.40;4.80;;;19.30;96.30;;;;;;4912060;29;20883;-68
2023/10/08 07:27:29;;;;;;;5.20;4.70;;;19.30;96.30;;;;;;4945380;29;20424;-69
2023/10/08 07:30:01;;;;;;;5.03;4.57;;;19.30;96.30;;;;;;4911815;29;20447;-70
2023/10/08 07:32:30;;;;;;;6.80;5.23;;;19.30;96.30;;;;;;4926253;29;20546;-70
2023/10/08 07:35:23;;;;;;;5.30;4.67;;;19.30;96.30;;;;;;4926364;28;20427;-70
2023/10/08 07:37:48;;;;;;;5.10;4.40;;;19.30;96.30;;;;;;4920193;29;20435;-70
2023/10/08 07:40:15;;;;;;;5.90;4.60;;;19.30;96.30;;;;;;4944001;29;20507;-70
2023/10/08 07:42:44;;;;;;;5.23;4.73;;;19.30;96.30;;;;;;4894589;29;20505;-70
2023/10/08 07:45:17;;;;;;;5.40;4.50;;;19.30;96.30;;;;;;4944057;28;20454;-69
2023/10/08 07:47:47;;;;;;;5.60;4.23;;;19.30;96.30;;;;;;4926640;29;20586;-70
2023/10/08 07:50:16;;;;;;;4.93;4.33;;;19.30;96.30;;;;;;4943230;29;20435;-70
2023/10/08 07:52:44;;;;;;;5.10;4.33;;;19.30;96.30;;;;;;4926211;29;20726;-70
2023/10/08 07:55:10;;;;;;;4.80;4.10;;;19.30;96.30;;;;;;4909778;29;20555;-70
2023/10/08 07:57:36;;;;;;;5.23;4.60;;;19.30;96.30;;;;;;4910256;29;20431;-70
2023/10/08 08:02:47;;;;;;;6.50;4.70;;;19.30;96.30;;;;;;4925904;29;20806;-70
2023/10/08 08:05:17;;;;;;;5.40;4.33;;;19.30;96.30;;;;;;4894587;29;20471;-70
2023/10/08 08:07:52;;;;;;;5.50;4.73;;;19.30;96.30;;;;;;4926527;29;20452;-70
2023/10/08 08:10:23;;;;;;;4.80;4.10;;;19.30;96.30;;;;;;4922641;29;20463;-70
2023/10/08 08:12:51;;;;;;;7.80;4.47;;;19.30;96.30;;;;;;4943140;29;20812;-70
2023/10/08 08:15:22;;;;;;;5.10;4.47;;;19.30;96.30;;;;;;4943083;28;20562;-70
2023/10/08 08:17:48;;;;;;;6.80;4.73;;;19.30;96.30;;;;;;4943623;29;20446;-70
2023/10/08 08:20:34;;;;;;;5.10;4.60;;;19.30;96.30;;;;;;4943464;29;20858;-70
2023/10/08 08:23:06;;;;;;;4.90;4.40;;;19.30;96.30;;;;;;4925703;29;20597;-70
2023/10/08 08:25:46;;;;;;;6.83;4.63;;;19.30;96.20;;;;;;5031279;23;20509;-70
2023/10/08 08:28:20;;;;;;;5.00;4.23;;;19.30;96.30;;;;;;4963071;28;20430;-70
2023/10/08 08:30:48;;;;;;;5.07;4.57;;;19.30;96.30;;;;;;4961669;28;20417;-70
2023/10/08 08:33:21;;;;;;;5.17;4.67;;;19.30;96.30;;;;;;4961195;28;20421;-70
2023/10/08 08:36:01;;;;;;;6.50;4.37;;;19.30;96.30;;;;;;4960956;28;20464;-70
2023/10/08 08:38:32;;;;;;;6.33;4.30;;;19.30;96.40;;;;;;4945298;28;20431;-69
2023/10/08 08:41:12;;;;;;;5.07;4.47;;;19.30;96.30;;;;;;4961658;28;20483;-70
2023/10/08 08:43:44;;;;;;;6.50;4.90;;;19.30;96.30;;;;;;4955190;28;20477;-70
2023/10/08 08:46:13;;;;;;;7.30;4.80;;;19.30;96.40;;;;;;4944848;28;20457;-70
2023/10/08 08:48:47;;;;;;;5.30;4.40;;;19.30;96.30;;;;;;4954335;28;20429;-69
2023/10/08 08:51:13;;;;;;;5.17;4.17;;;19.30;96.30;;;;;;4945021;28;20442;-70
2023/10/08 08:53:46;;;;;;;6.17;4.50;;;19.30;96.30;;;;;;4942324;28;20559;-70
2023/10/08 08:56:15;;;;;;;7.17;5.33;;;19.40;96.40;;;;;;4952386;28;20462;-70
2023/10/08 08:58:44;;;;;;;6.83;5.47;;;19.30;96.30;;;;;;4963615;28;20985;-70
2023/10/08 09:01:18;;;;;;;5.70;5.07;;;19.30;96.40;;;;;;4953060;28;20444;-70
2023/10/08 09:03:48;;;;;;;5.17;4.17;;;19.30;96.40;;;;;;4946992;28;20470;-70
2023/10/08 09:06:19;;;;;;;7.83;5.40;;;19.30;96.40;;;;;;4944099;28;20455;-70
2023/10/08 09:08:48;;;;;;;6.17;4.80;;;19.30;96.30;;;;;;4930625;28;20493;-70
2023/10/08 09:11:16;;;;;;;5.70;4.73;;;19.30;96.30;;;;;;4958568;28;20450;-70
2023/10/08 09:13:45;;;;;;;9.93;4.73;;;19.30;96.30;;;;;;4961941;28;20513;-70
2023/10/08 09:16:16;;;;;;;8.13;5.33;;;19.30;96.30;;;;;;4961518;28;20472;-70
2023/10/08 09:18:48;;;;;;;8.73;5.27;;;19.30;96.40;;;;;;4962547;28;20442;-70
2023/10/08 09:21:22;;;;;;;7.33;5.00;;;19.30;96.40;;;;;;4944380;28;20469;-71
2023/10/08 09:23:54;;;;;;;8.23;4.90;;;19.30;96.40;;;;;;4952999;28;21113;-70
2023/10/08 09:26:25;;;;;;;11.90;5.67;;;19.40;96.40;;;;;;4947604;28;21089;-70
2023/10/08 09:28:54;;;;;;;9.47;5.27;;;19.30;96.40;;;;;;4946762;28;20453;-70
2023/10/08 09:31:23;;;;;;;10.23;5.50;;;19.40;96.50;;;;;;4947176;28;20561;-70
2023/10/08 09:33:58;;;;;;;7.47;5.37;;;19.30;96.40;;;;;;4963212;28;20430;-71
2023/10/08 09:36:31;;;;;;;11.67;6.17;;;19.40;96.40;;;;;;4944788;28;20456;-70
2023/10/08 09:39:04;;;;;;;15.47;7.10;;;19.40;96.50;;;;;;4958358;28;20440;-70
2023/10/08 09:41:33;;;;;;;10.63;6.13;;;19.40;96.50;;;;;;4963270;28;20435;-70
2023/10/08 09:44:00;;;;;;;11.70;5.67;;;19.40;96.50;;;;;;4963576;28;20488;-70
2023/10/08 09:46:36;;;;;;;11.40;5.93;;;19.40;96.60;;;;;;4963707;28;20460;-70
2023/10/08 09:49:07;;;;;;;10.50;6.70;;;19.40;96.60;;;;;;4963930;28;21127;-71
2023/10/08 09:51:40;;;;;;;11.10;6.80;;;19.40;96.60;;;;;;4980430;28;20425;-70
2023/10/08 09:54:20;;;;;;;8.80;6.17;;;19.40;96.60;;;;;;4980519;28;20425;-69
2023/10/08 09:56:47;;;;;;;17.50;6.63;;;19.40;96.60;;;;;;4952007;28;20927;-70
2023/10/08 09:59:19;;;;;;;13.07;8.17;;;19.50;96.70;;;;;;4953360;28;20879;-70
2023/10/08 10:01:48;;;;;;;11.97;6.53;;;19.40;96.70;;;;;;4967942;28;20497;-70
2023/10/08 10:04:31;;;;;;;12.93;7.07;;;19.40;96.60;;;;;;4936501;28;20933;-71
2023/10/08 10:07:12;;;;;;;12.90;7.47;;;19.50;96.70;;;;;;4973168;28;20914;-70
2023/10/08 10:09:42;;;;;;;10.67;7.93;;;19.50;96.80;;;;;;4955778;28;20453;-70
2023/10/08 10:12:17;;;;;;;14.07;7.63;;;19.40;96.70;;;;;;4980511;28;20439;-70
2023/10/08 10:14:46;;;;;;;17.33;8.90;;;19.40;96.70;;;;;;4980596;28;20966;-70
2023/10/08 10:17:20;;;;;;;13.00;8.33;;;19.50;96.70;;;;;;4980880;28;20903;-71
2023/10/08 10:19:59;;;;;;;18.37;9.07;;;19.50;96.80;;;;;;4955027;28;20670;-69
2023/10/08 10:22:32;;;;;;;14.70;8.37;;;19.50;96.80;;;;;;4938751;28;20565;-70
2023/10/08 10:25:16;;;;;;;14.73;8.93;;;19.50;96.90;;;;;;4978962;28;20523;-70
2023/10/08 10:27:54;;;;;;;20.50;9.50;;;19.50;96.90;;;;;;4953092;28;20471;-70
2023/10/08 10:30:20;;;;;;;16.67;8.70;;;19.50;96.90;;;;;;4978801;28;20901;-70
2023/10/08 10:32:46;;;;;;;22.33;9.20;;;19.50;96.90;;;;;;4946970;28;20459;-71
2023/10/08 10:35:19;;;;;;;15.60;8.53;;;19.50;96.90;;;;;;4946809;28;20988;-70
2023/10/08 10:37:55;;;;;;;12.90;9.60;;;19.50;96.90;;;;;;4962477;28;21297;-71
2023/10/08 10:40:39;;;;;;;15.57;9.33;;;19.50;96.90;;;;;;4946835;28;20547;-70
2023/10/08 10:43:09;;;;;;;15.37;10.20;;;19.60;97.00;;;;;;4980181;28;20518;-70
2023/10/08 10:45:46;;;;;;;16.87;9.13;;;19.50;96.90;;;;;;4954704;28;20525;-70
2023/10/08 10:56:30;;;;;;;16.43;9.90;;;19.60;97.10;;;;;;4969241;28;20452;-70
2023/10/08 10:59:04;;;;;;;16.20;11.03;;;19.60;97.10;;;;;;4944406;28;20892;-69
2023/10/08 11:01:44;;;;;;;14.43;10.80;;;19.60;97.10;;;;;;4950520;28;20807;-70
2023/10/08 11:04:19;;;;;;;13.90;10.30;;;19.60;97.10;;;;;;4950064;28;20536;-70
2023/10/08 11:06:50;;;;;;;16.93;10.60;;;19.60;97.10;;;;;;4966660;28;21073;-69
2023/10/08 11:09:35;;;;;;;15.40;11.30;;;19.60;97.10;;;;;;4947393;28;20430;-70
2023/10/08 11:12:18;;;;;;;15.40;11.77;;;19.60;97.10;;;;;;4950882;28;20562;-70
2023/10/08 11:14:52;;;;;;;13.70;11.30;;;19.70;97.20;;;;;;4934809;28;20462;-68
2023/10/08 11:17:28;;;;;;;18.63;10.90;;;19.70;97.10;;;;;;4984245;28;20425;-71
2023/10/08 11:19:54;;;;;;;14.73;10.03;;;19.70;97.10;;;;;;4966151;28;20505;-70
2023/10/08 11:22:22;;;;;;;14.13;11.10;;;19.70;97.20;;;;;;4965251;28;20843;-70
2023/10/08 11:24:53;;;;;;;17.97;10.43;;;19.70;97.20;;;;;;4982154;28;20501;-70
2023/10/08 11:27:35;;;;;;;11.63;10.43;;;19.70;97.20;;;;;;4947906;28;20456;-70
2023/10/08 11:30:01;;;;;;;14.20;9.27;;;19.70;97.30;;;;;;4948178;28;20446;-70
2023/10/08 11:32:32;;;;;;;14.33;9.20;;;19.70;97.20;;;;;;4965070;28;20420;-70
2023/10/08 11:35:15;;;;;;;11.17;9.90;;;19.70;97.30;;;;;;4964535;28;20519;-70
2023/10/08 11:37:51;;;;;;;10.60;9.50;;;19.70;97.30;;;;;;4981849;28;20422;-70
2023/10/08 11:40:48;;;;;;;15.60;10.30;;;19.70;97.30;;;;;;4963505;28;21218;-68
2023/10/08 11:43:18;;;;;;;18.23;9.50;;;19.70;97.20;;;;;;4963730;28;20943;-68
2023/10/08 11:45:49;;;;;;;9.57;7.90;;;19.70;97.30;;;;;;4964143;28;20862;-69
2023/10/08 11:48:28;;;;;;;13.07;8.90;;;19.70;97.30;;;;;;4965621;28;20517;-69
2023/10/08 11:51:01;;;;;;;9.43;7.63;;;19.80;97.20;;;;;;4981736;28;21327;-68
2023/10/08 11:53:28;;;;;;;11.50;8.67;;;19.70;97.20;;;;;;4980448;28;20464;-67
2023/10/08 11:55:57;;;;;;;11.20;7.83;;;19.80;97.20;;;;;;4947248;28;20452;-68
2023/10/08 11:58:37;;;;;;;13.23;9.20;;;19.80;97.20;;;;;;4946642;28;20438;-68
2023/10/08 12:01:03;;;;;;;11.43;8.40;;;19.80;97.20;;;;;;4980436;28;20418;-67
2023/10/08 12:03:31;;;;;;;11.77;8.67;;;19.80;97.20;;;;;;4962317;28;20485;-68
2023/10/08 12:06:00;;;;;;;12.80;8.20;;;19.80;97.10;;;;;;4962559;28;20470;-68
2023/10/08 12:08:29;;;;;;;9.10;7.60;;;19.80;97.10;;;;;;4981155;28;20861;-68
2023/10/08 12:10:55;;;;;;;13.67;8.30;;;19.80;97.10;;;;;;4981515;28;20443;-69
2023/10/08 12:13:28;;;;;;;11.10;8.60;;;19.80;97.10;;;;;;4981436;28;20474;-69
2023/10/08 12:16:06;;;;;;;8.10;7.23;;;19.80;97.00;;;;;;4963148;28;20534;-68
2023/10/08 12:18:39;;;;;;;12.77;7.50;;;19.90;97.10;;;;;;4973824;28;20558;-68
2023/10/08 12:21:14;;;;;;;13.73;7.73;;;19.90;97.10;;;;;;4963515;28;20943;-68
2023/10/08 12:23:43;;;;;;;9.67;7.87;;;19.90;97.10;;;;;;4974203;28;21180;-68
2023/10/08 12:26:15;;;;;;;9.53;7.73;;;19.90;97.10;;;;;;4981582;28;20447;-68
2023/10/08 12:28:48;;;;;;;8.40;6.83;;;19.90;97.00;;;;;;4948239;28;20470;-68
2023/10/08 12:31:23;;;;;;;12.17;8.10;;;19.90;97.00;;;;;;4948780;28;20422;-68
2023/10/08 12:33:56;;;;;;;9.30;7.73;;;19.90;97.00;;;;;;4980737;28;20524;-68
2023/10/08 12:36:26;;;;;;;11.87;7.20;;;19.90;97.00;;;;;;4964042;28;20482;-68
2023/10/08 12:38:57;;;;;;;8.07;6.83;;;19.90;97.00;;;;;;4981480;28;20441;-68
2023/10/08 12:41:28;;;;;;;10.90;7.47;;;19.90;97.00;;;;;;4981027;28;20431;-68
2023/10/08 12:43:54;;;;;;;9.20;7.00;;;19.90;96.90;;;;;;4981708;28;20639;-68
2023/10/08 12:46:24;;;;;;;7.97;6.80;;;20.00;96.90;;;;;;4964038;28;20858;-68
2023/10/08 12:48:58;;;;;;;8.20;6.27;;;20.00;97.00;;;;;;4948777;28;20444;-68
2023/10/08 12:51:32;;;;;;;10.97;6.90;;;20.00;97.00;;;;;;4963107;28;20462;-69
2023/10/08 12:54:10;;;;;;;9.87;7.10;;;19.90;96.90;;;;;;4964632;28;20529;-68
2023/10/08 12:56:48;;;;;;;13.53;7.23;;;20.00;96.90;;;;;;4980243;28;21192;-67
2023/10/08 12:59:20;;;;;;;7.67;6.20;;;19.90;96.80;;;;;;4963170;28;20472;-68
2023/10/08 13:02:07;;;;;;;7.87;6.50;;;20.00;96.90;;;;;;4962759;28;20439;-69
2023/10/08 13:04:34;;;;;;;7.97;6.20;;;20.00;96.90;;;;;;4962609;28;20478;-69
2023/10/08 13:07:02;;;;;;;8.50;7.10;;;20.00;96.80;;;;;;4963693;28;20531;-68
2023/10/08 13:09:36;;;;;;;7.23;5.60;;;20.00;96.90;;;;;;4980682;28;20437;-69
2023/10/08 13:12:04;;;;;;;8.20;6.00;;;20.00;97.00;;;;;;4963171;28;20483;-69
2023/10/08 13:14:30;;;;;;;8.10;6.30;;;20.00;96.90;;;;;;4962813;28;21010;-69
2023/10/08 13:16:58;;;;;;;7.47;6.63;;;20.00;96.90;;;;;;4980793;28;20446;-69
2023/10/08 13:19:30;;;;;;;7.60;6.13;;;20.00;96.90;;;;;;4962734;28;20427;-70
2023/10/08 13:21:59;;;;;;;7.43;5.93;;;20.00;96.80;;;;;;4961241;28;20988;-68
2023/10/08 13:24:28;;;;;;;6.70;5.63;;;20.00;96.80;;;;;;4930200;28;20537;-69
2023/10/08 13:26:58;;;;;;;8.80;5.93;;;20.10;96.80;;;;;;4962211;28;20830;-69
2023/10/08 13:29:26;;;;;;;6.53;5.30;;;20.00;96.90;;;;;;4929667;28;20446;-69
2023/10/08 13:31:54;;;;;;;7.63;6.30;;;20.00;96.90;;;;;;4978222;28;20530;-69
2023/10/08 13:34:21;;;;;;;7.90;6.33;;;20.00;96.90;;;;;;4979370;28;20575;-68
2023/10/08 13:36:49;;;;;;;5.40;4.90;;;20.00;96.90;;;;;;4943267;28;20246;-69
2023/10/08 13:39:18;;;;;;;9.67;5.47;;;20.10;96.90;;;;;;4951342;28;20431;-70
2023/10/08 13:41:47;;;;;;;7.63;5.57;;;20.00;96.80;;;;;;4961105;28;20595;-69
2023/10/08 13:44:28;;;;;;;5.90;4.60;;;20.00;96.80;;;;;;4960038;28;20479;-69
2023/10/08 13:46:57;;;;;;;6.17;4.90;;;20.00;96.80;;;;;;4977235;28;20525;-69
2023/10/08 13:49:29;;;;;;;5.43;4.80;;;20.00;96.80;;;;;;4960335;28;20438;-69
2023/10/08 13:51:58;;;;;;;6.50;5.07;;;20.10;96.80;;;;;;4951125;28;21243;-68
2023/10/08 13:54:28;;;;;;;5.70;5.10;;;20.10;96.90;;;;;;4958794;28;20604;-67
2023/10/08 13:56:56;;;;;;;6.10;4.80;;;20.10;96.80;;;;;;4960396;28;20455;-68
2023/10/08 13:59:25;;;;;;;7.10;4.83;;;20.10;96.80;;;;;;4944400;28;20465;-68
2023/10/08 14:01:56;;;;;;;5.30;4.80;;;20.10;96.70;;;;;;4979256;28;20494;-71
2023/10/08 14:04:30;;;;;;;7.87;6.10;;;20.10;96.80;;;;;;4961336;28;20521;-71
2023/10/08 14:06:58;;;;;;;8.10;5.30;;;20.10;96.70;;;;;;4960559;28;21263;-70
2023/10/08 14:09:36;;;;;;;5.30;4.80;;;20.10;96.70;;;;;;4944863;28;20551;-70
2023/10/08 14:12:03;;;;;;;6.47;5.47;;;20.10;96.70;;;;;;4944770;28;20453;-69
2023/10/08 14:14:30;;;;;;;6.60;5.47;;;20.20;96.80;;;;;;4946095;28;20433;-70
2023/10/08 14:17:05;;;;;;;6.43;5.07;;;20.10;96.70;;;;;;4979432;28;20516;-70
2023/10/08 14:19:39;;;;;;;5.30;4.67;;;20.10;96.70;;;;;;4944877;28;20437;-71
2023/10/08 14:22:08;;;;;;;5.40;4.77;;;20.10;96.70;;;;;;4961387;28;20471;-70
2023/10/08 14:24:38;;;;;;;5.80;5.20;;;20.20;96.70;;;;;;4959974;28;20479;-72
2023/10/08 14:27:11;;;;;;;6.50;4.90;;;20.20;96.70;;;;;;4943857;28;20563;-73
2023/10/08 14:29:47;;;;;;;5.33;4.67;;;20.10;96.60;;;;;;4970987;28;21023;-72
2023/10/08 14:32:15;;;;;;;5.87;5.27;;;20.10;96.60;;;;;;4943946;28;20429;-72
2023/10/08 14:42:56;;;;;;;6.30;4.90;;;20.20;96.70;;;;;;4948928;28;20448;-74
2023/10/08 14:45:31;;;;;;;5.53;5.03;;;20.20;96.70;;;;;;4964376;28;20448;-71
2023/10/08 14:47:58;;;;;;;6.03;4.50;;;20.20;96.70;;;;;;4963987;28;20511;-75
2023/10/08 14:50:31;;;;;;;5.07;4.30;;;20.20;96.60;;;;;;4964838;28;21085;-69
2023/10/08 14:53:00;;;;;;;7.07;6.47;;;20.10;96.50;;;;;;4962750;28;20613;-71
2023/10/08 14:55:27;;;;;;;5.60;4.80;;;20.20;96.60;;;;;;4949146;28;20448;-69